createdAt,value
2018-08-19T00:04:02.493Z,20.80
2018-08-19T00:09:13.243Z,20.80
2018-08-19T00:14:28.474Z,20.70
2018-08-19T00:19:32.953Z,20.60
2018-08-19T00:24:35.993Z,20.60
2018-08-19T00:29:39.021Z,20.40
2018-08-19T00:34:42.124Z,20.40
2018-08-19T00:39:45.137Z,20.30
2018-08-19T00:44:48.184Z,20.30
2018-08-19T00:49:55.462Z,20.30
2018-08-19T00:54:58.536Z,20.20
2018-08-19T01:00:01.544Z,20.20
2018-08-19T01:05:04.672Z,20.10
2018-08-19T01:10:07.688Z,20.10
2018-08-19T01:15:11.992Z,20.10
2018-08-19T01:20:20.012Z,20.00
2018-08-19T01:25:23.022Z,20.00
2018-08-19T01:30:27.049Z,19.90
2018-08-19T01:35:36.384Z,19.90
2018-08-19T01:40:39.457Z,19.80
2018-08-19T01:45:42.494Z,19.70
2018-08-19T01:50:45.512Z,19.70
2018-08-19T01:55:48.527Z,19.60
2018-08-19T02:00:51.616Z,19.60
2018-08-19T02:05:54.836Z,19.60
2018-08-19T02:10:57.852Z,19.60
2018-08-19T02:16:04.840Z,19.70
2018-08-19T02:21:07.864Z,19.60
2018-08-19T02:26:10.920Z,19.60
2018-08-19T02:31:13.947Z,19.50
2018-08-19T02:36:17.023Z,19.50
2018-08-19T02:41:20.036Z,19.50
2018-08-19T02:46:23.164Z,19.40
2018-08-19T02:51:26.240Z,19.30
2018-08-19T02:56:29.264Z,19.30
2018-08-19T03:01:32.284Z,19.40
2018-08-19T03:06:36.396Z,19.30
2018-08-19T03:11:40.011Z,19.30
2018-08-19T03:16:43.032Z,19.30
2018-08-19T03:21:46.045Z,19.30
2018-08-19T03:26:49.100Z,19.20
2018-08-19T03:31:56.387Z,19.20
2018-08-19T03:36:59.512Z,19.10
2018-08-19T03:42:02.540Z,19.00
2018-08-19T03:47:09.804Z,19.00
2018-08-19T03:52:13.280Z,18.90
2018-08-19T03:57:19.742Z,18.90
2018-08-19T04:02:22.757Z,18.90
2018-08-19T04:07:25.774Z,18.80
2018-08-19T04:12:28.821Z,18.90
2018-08-19T04:17:31.852Z,19.00
2018-08-19T04:22:34.854Z,19.10
2018-08-19T04:27:37.877Z,19.10
2018-08-19T04:32:40.893Z,19.20
2018-08-19T04:37:43.936Z,19.20
2018-08-19T04:42:46.964Z,19.20
2018-08-19T04:47:49.980Z,19.20
2018-08-19T04:52:53.040Z,19.30
2018-08-19T04:57:56.147Z,19.30
2018-08-19T05:02:59.217Z,19.20
2018-08-19T05:08:02.322Z,19.30
2018-08-19T05:13:05.769Z,19.40
2018-08-19T05:18:09.192Z,19.60
2018-08-19T05:23:12.209Z,19.70
2018-08-19T05:28:16.650Z,19.70
2018-08-19T05:33:19.677Z,19.70
2018-08-19T05:38:22.700Z,19.60
2018-08-19T05:43:25.704Z,19.70
2018-08-19T05:48:28.840Z,19.60
2018-08-19T05:53:31.940Z,19.60
2018-08-19T05:58:35.053Z,19.80
2018-08-19T06:03:38.135Z,20.00
2018-08-19T06:08:41.152Z,20.20
2018-08-19T06:13:44.156Z,20.40
2018-08-19T06:18:47.174Z,20.60
2018-08-19T06:23:50.262Z,20.90
2018-08-19T06:28:53.888Z,21.00
2018-08-19T06:33:56.981Z,21.10
2018-08-19T06:38:59.992Z,21.30
2018-08-19T06:44:03.040Z,21.70
2018-08-19T06:49:12.348Z,22.10
2018-08-19T06:54:15.381Z,22.30
2018-08-19T06:59:18.445Z,22.40
2018-08-19T07:04:21.468Z,22.30
2018-08-19T07:09:24.481Z,22.50
2018-08-19T07:14:28.585Z,22.90
2018-08-19T07:19:31.685Z,23.20
2018-08-19T07:24:36.019Z,23.10
2018-08-19T07:29:39.098Z,23.20
2018-08-19T07:34:42.145Z,23.50
2018-08-19T07:39:50.708Z,24.00
2018-08-19T07:44:53.735Z,24.00
2018-08-19T07:49:56.753Z,24.20
2018-08-19T07:54:59.875Z,24.10
2018-08-19T08:00:02.884Z,24.10
2018-08-19T08:05:07.116Z,24.10
2018-08-19T08:10:10.141Z,24.30
2018-08-19T08:15:13.268Z,24.50
2018-08-19T08:20:16.292Z,24.60
2018-08-19T08:25:19.324Z,24.80
2018-08-19T08:30:22.347Z,25.00
2018-08-19T08:35:25.404Z,24.90
2018-08-19T08:40:28.429Z,25.20
2018-08-19T08:45:36.443Z,25.40
2018-08-19T08:50:40.420Z,25.20
2018-08-19T08:55:43.496Z,25.30
2018-08-19T09:00:47.056Z,25.50
2018-08-19T09:05:50.085Z,25.80
2018-08-19T09:10:53.981Z,25.90
2018-08-19T09:15:57.137Z,26.60
2018-08-19T09:21:00.168Z,27.50
2018-08-19T09:26:03.192Z,28.20
2018-08-19T09:31:06.260Z,28.10
2018-08-19T09:36:09.358Z,27.90
2018-08-19T09:41:12.919Z,28.20
2018-08-19T09:46:16.041Z,28.00
2018-08-19T09:51:19.372Z,28.70
2018-08-19T09:56:23.576Z,28.90
2018-08-19T10:01:32.081Z,28.90
2018-08-19T10:06:35.096Z,29.90
2018-08-19T10:11:38.455Z,30.50
2018-08-19T10:16:44.120Z,30.70
2018-08-19T10:21:47.140Z,29.30
2018-08-19T10:26:50.172Z,28.70
2018-08-19T10:31:54.817Z,28.90
2018-08-19T10:36:58.480Z,28.50
2018-08-19T10:42:17.868Z,28.80
2018-08-19T10:47:21.487Z,28.80
2018-08-19T10:52:26.642Z,29.10
2018-08-19T10:57:29.659Z,29.10
2018-08-19T11:02:32.743Z,29.40
2018-08-19T11:07:35.837Z,29.40
2018-08-19T11:12:38.968Z,28.90
2018-08-19T11:17:41.992Z,29.80
2018-08-19T11:22:45.066Z,30.30
2018-08-19T11:27:48.110Z,30.50
2018-08-19T11:32:51.612Z,31.00
2018-08-19T11:37:55.680Z,31.60
2018-08-19T11:42:58.733Z,31.50
2018-08-19T11:48:01.759Z,31.70
2018-08-19T11:53:04.794Z,31.80
2018-08-19T11:58:07.845Z,32.30
2018-08-19T12:03:10.892Z,31.60
2018-08-19T12:08:13.929Z,32.00
2018-08-19T12:13:16.975Z,32.50
2018-08-19T12:18:20.012Z,32.30
2018-08-19T12:23:23.045Z,32.10
2018-08-19T12:28:26.065Z,32.60
2018-08-19T12:33:29.109Z,32.80
2018-08-19T12:38:32.156Z,33.40
2018-08-19T12:43:35.660Z,33.50
2018-08-19T12:48:38.703Z,33.00
2018-08-19T12:53:41.736Z,33.20
2018-08-19T12:58:44.772Z,32.10
2018-08-19T13:03:47.857Z,32.50
2018-08-19T13:08:50.912Z,32.60
2018-08-19T13:13:53.994Z,32.90
2018-08-19T13:18:56.990Z,32.70
2018-08-19T13:24:00.021Z,32.80
2018-08-19T13:29:03.072Z,33.00
2018-08-19T13:34:06.216Z,33.30
2018-08-19T13:39:09.313Z,33.10
2018-08-19T13:44:12.348Z,33.60
2018-08-19T13:49:18.484Z,33.50
2018-08-19T13:54:22.720Z,34.00
2018-08-19T13:59:25.754Z,34.30
2018-08-19T14:04:28.800Z,34.00
2018-08-19T14:09:31.844Z,33.60
2018-08-19T14:14:34.873Z,33.30
2018-08-19T14:19:37.948Z,33.60
2018-08-19T14:24:40.984Z,33.70
2018-08-19T14:29:44.145Z,33.60
2018-08-19T14:34:47.257Z,33.50
2018-08-19T14:39:50.304Z,33.90
2018-08-19T14:44:53.572Z,34.10
2018-08-19T14:49:57.600Z,34.80
2018-08-19T14:55:00.622Z,34.80
2018-08-19T15:00:05.247Z,34.40
2018-08-19T15:05:12.056Z,34.40
2018-08-19T15:10:19.828Z,33.90
2018-08-19T15:15:22.968Z,34.00
2018-08-19T15:20:31.572Z,34.00
2018-08-19T15:25:34.688Z,34.40
2018-08-19T15:30:39.658Z,33.90
2018-08-19T15:35:43.048Z,33.90
2018-08-19T15:40:48.873Z,34.00
2018-08-19T15:45:51.929Z,34.00
2018-08-19T15:50:59.216Z,34.00
2018-08-19T15:56:02.340Z,33.90
2018-08-19T16:01:17.303Z,33.90
2018-08-19T16:06:20.429Z,33.60
2018-08-19T16:11:23.497Z,33.40
2018-08-19T16:16:26.665Z,33.40
2018-08-19T16:21:29.704Z,33.60
2018-08-19T16:26:32.736Z,33.50
2018-08-19T16:31:35.783Z,33.10
2018-08-19T16:36:38.816Z,33.20
2018-08-19T16:41:41.856Z,33.50
2018-08-19T16:46:44.884Z,33.90
2018-08-19T16:51:47.908Z,33.80
2018-08-19T16:56:50.926Z,33.70
2018-08-19T17:01:53.991Z,33.30
2018-08-19T17:06:57.021Z,33.60
2018-08-19T17:12:00.036Z,33.50
2018-08-19T17:17:03.088Z,33.50
2018-08-19T17:22:08.211Z,33.90
2018-08-19T17:27:11.724Z,33.00
2018-08-19T17:32:14.780Z,31.90
2018-08-19T17:37:18.504Z,31.40
2018-08-19T17:42:21.596Z,30.90
2018-08-19T17:47:24.644Z,30.50
2018-08-19T17:52:27.700Z,30.40
2018-08-19T17:57:30.746Z,30.10
2018-08-19T18:02:33.776Z,29.90
2018-08-19T18:07:36.888Z,29.70
2018-08-19T18:12:39.949Z,29.60
2018-08-19T18:17:47.308Z,29.60
2018-08-19T18:22:50.505Z,29.50
2018-08-19T18:27:53.592Z,29.20
2018-08-19T18:32:56.608Z,28.90
2018-08-19T18:38:00.100Z,28.60
2018-08-19T18:43:03.343Z,28.40
2018-08-19T18:48:07.213Z,28.20
2018-08-19T18:53:10.445Z,28.00
2018-08-19T18:58:13.698Z,27.80
2018-08-19T19:03:16.801Z,27.60
2018-08-19T19:08:19.832Z,27.50
2018-08-19T19:13:23.889Z,27.30
2018-08-19T19:18:26.955Z,27.10
2018-08-19T19:23:32.575Z,26.90
2018-08-19T19:28:35.735Z,26.70
2018-08-19T19:33:38.716Z,26.50
2018-08-19T19:38:48.277Z,26.40
2018-08-19T19:43:51.308Z,26.20
2018-08-19T19:48:54.394Z,26.10
2018-08-19T19:53:57.439Z,25.90
2018-08-19T19:59:00.477Z,25.80
2018-08-19T20:04:03.788Z,25.70
2018-08-19T20:09:06.848Z,25.60
2018-08-19T20:14:09.898Z,25.40
2018-08-19T20:19:12.936Z,25.30
2018-08-19T20:24:16.026Z,25.30
2018-08-19T20:29:19.276Z,25.20
2018-08-19T20:34:22.309Z,25.00
2018-08-19T20:39:25.383Z,24.90
2018-08-19T20:44:28.613Z,24.80
2018-08-19T20:49:31.628Z,24.70
2018-08-19T20:54:34.737Z,24.70
2018-08-19T20:59:38.516Z,24.60
2018-08-19T21:04:41.538Z,24.50
2018-08-19T21:09:44.579Z,24.40
2018-08-19T21:14:47.682Z,24.30
2018-08-19T21:19:50.690Z,24.20
2018-08-19T21:24:53.747Z,24.10
2018-08-19T21:29:56.838Z,24.10
2018-08-19T21:34:59.840Z,24.00
2018-08-19T21:40:03.296Z,23.90
2018-08-19T21:45:06.342Z,23.80
2018-08-19T21:50:09.368Z,23.80
2018-08-19T21:55:12.392Z,23.70
2018-08-19T22:00:15.420Z,23.60
2018-08-19T22:05:18.532Z,23.50
2018-08-19T22:10:21.639Z,23.50
2018-08-19T22:15:29.055Z,23.40
2018-08-19T22:20:32.299Z,23.30
2018-08-19T22:25:35.376Z,23.30
2018-08-19T22:30:38.438Z,23.20
2018-08-19T22:35:41.474Z,23.10
2018-08-19T22:40:44.533Z,23.00
2018-08-19T22:45:48.164Z,23.00
2018-08-19T22:50:51.212Z,22.90
2018-08-19T22:55:54.316Z,22.90
2018-08-19T23:00:57.345Z,22.80
2018-08-19T23:06:00.413Z,22.70
2018-08-19T23:11:04.195Z,22.70
2018-08-19T23:16:09.300Z,22.60
2018-08-19T23:21:12.345Z,22.50
2018-08-19T23:26:15.395Z,22.40
2018-08-19T23:31:18.412Z,22.40
2018-08-19T23:36:21.423Z,22.30
2018-08-19T23:41:24.479Z,22.20
2018-08-19T23:46:27.518Z,22.10
2018-08-19T23:51:31.596Z,21.80
2018-08-19T23:56:34.653Z,21.60
